Time;durP1;ratioP1;P1;durP2;ratioP2;P2;SDS_P1;SDS_P2;PMS_P1;PMS_P2;Temp;Humidity;BMP_temperature;BMP_pressure;BME280_temperature;BME280_humidity;BME280_pressure;Samples;Min_cycle;Max_cycle;Signal;HPM_P1;HPM_P2
2021/08/01 00:01:45;;;;;;;2.88;2.40;;;;;;;;;;5094408;28;20185;-44
2021/08/01 00:04:11;;;;;;;2.65;2.30;;;;;;;;;;5099549;28;20177;-44
2021/08/01 00:06:37;;;;;;;2.80;2.45;;;;;;;;;;5115143;28;20825;-45
2021/08/01 00:09:03;;;;;;;3.13;2.45;;;;;;;;;;5092736;28;20321;-44
2021/08/01 00:11:30;;;;;;;3.63;2.40;;;;;;;;;;5104904;28;20192;-44
2021/08/01 00:13:56;;;;;;;2.83;2.45;;;;;;;;;;5104959;28;20181;-44
2021/08/01 00:16:23;;;;;;;2.60;2.40;;;;;;;;;;5093934;28;20174;-44
2021/08/01 00:18:49;;;;;;;5.82;2.70;;;;;;;;;;5087395;28;20189;-44
2021/08/01 00:21:15;;;;;;;2.47;2.28;;;;;;;;;;5074247;28;20174;-44
2021/08/01 00:23:41;;;;;;;2.30;2.10;;;;;;;;;;5102721;28;20189;-44
2021/08/01 00:26:07;;;;;;;2.88;2.58;;;;;;;;;;5094563;28;20586;-45
2021/08/01 00:28:33;;;;;;;3.90;2.60;;;;;;;;;;5081262;28;20266;-45
2021/08/01 00:30:59;;;;;;;2.42;2.20;;;;;;;;;;5094385;28;20174;-45
2021/08/01 00:33:25;;;;;;;3.33;2.58;;;;;;;;;;5097897;28;20178;-45
2021/08/01 00:35:51;;;;;;;3.15;2.55;;;;;;;;;;5094317;28;20166;-45
2021/08/01 00:38:17;;;;;;;2.47;2.28;;;;;;;;;;5100930;28;20196;-44
2021/08/01 00:40:43;;;;;;;3.38;2.63;;;;;;;;;;5097630;28;20177;-44
2021/08/01 00:43:09;;;;;;;3.97;2.45;;;;;;;;;;5090861;28;20193;-45
2021/08/01 00:45:35;;;;;;;3.05;2.40;;;;;;;;;;5073857;28;20228;-44
2021/08/01 00:48:01;;;;;;;3.30;2.70;;;;;;;;;;5073298;28;20198;-44
2021/08/01 00:50:28;;;;;;;2.60;2.38;;;;;;;;;;5089372;28;20608;-44
2021/08/01 00:52:55;;;;;;;3.13;2.15;;;;;;;;;;5095682;28;20192;-44
2021/08/01 00:55:21;;;;;;;2.92;2.30;;;;;;;;;;5097931;28;20182;-44
2021/08/01 00:57:47;;;;;;;3.88;2.38;;;;;;;;;;5097030;28;20213;-44
2021/08/01 01:00:33;;;;;;;2.80;2.60;;;;;;;;;;5096367;28;20235;-44
2021/08/01 01:03:08;;;;;;;2.50;2.30;;;;;;;;;;5096641;28;20428;-44
2021/08/01 01:05:37;;;;;;;2.42;2.08;;;;;;;;;;5081167;28;20174;-45
2021/08/01 01:08:12;;;;;;;2.53;2.33;;;;;;;;;;5110180;28;20250;-44
2021/08/01 01:10:46;;;;;;;3.53;2.50;;;;;;;;;;5097504;28;20199;-44
2021/08/01 01:13:14;;;;;;;4.10;2.60;;;;;;;;;;5087713;28;20165;-44
2021/08/01 01:15:45;;;;;;;2.40;2.20;;;;;;;;;;5097746;28;20170;-44
2021/08/01 01:18:14;;;;;;;2.53;2.22;;;;;;;;;;5099989;28;20574;-44
2021/08/01 01:20:59;;;;;;;3.05;2.47;;;;;;;;;;5116011;28;20252;-44
2021/08/01 01:23:33;;;;;;;3.38;2.17;;;;;;;;;;5107214;28;20181;-44
2021/08/01 01:26:01;;;;;;;5.13;2.35;;;;;;;;;;5092698;28;20210;-44
2021/08/01 01:28:38;;;;;;;2.83;2.42;;;;;;;;;;5082461;28;20201;-45
2021/08/01 01:31:08;;;;;;;2.60;2.28;;;;;;;;;;5097276;28;20202;-44
2021/08/01 01:33:35;;;;;;;3.17;2.88;;;;;;;;;;5092028;28;20216;-44
2021/08/01 01:36:02;;;;;;;3.20;2.30;;;;;;;;;;5117584;28;20212;-44
2021/08/01 01:38:28;;;;;;;2.38;2.17;;;;;;;;;;5103236;28;20190;-44
2021/08/01 01:40:55;;;;;;;4.03;2.50;;;;;;;;;;5086031;28;20182;-45
2021/08/01 01:43:23;;;;;;;2.60;2.15;;;;;;;;;;5081683;28;20209;-44
2021/08/01 01:45:49;;;;;;;3.25;2.30;;;;;;;;;;5095282;28;20185;-44
2021/08/01 01:48:16;;;;;;;2.90;2.30;;;;;;;;;;5097702;28;20334;-45
2021/08/01 01:50:42;;;;;;;2.30;2.10;;;;;;;;;;5097056;28;20162;-44
2021/08/01 01:53:09;;;;;;;3.25;2.05;;;;;;;;;;5106504;28;20191;-45
2021/08/01 01:55:35;;;;;;;2.30;2.10;;;;;;;;;;5099560;28;20529;-44
2021/08/01 01:58:02;;;;;;;2.88;2.22;;;;;;;;;;5092339;28;20179;-44
2021/08/01 02:00:28;;;;;;;2.55;2.35;;;;;;;;;;5080902;28;20231;-44
2021/08/01 02:02:54;;;;;;;2.20;2.00;;;;;;;;;;5097838;28;20182;-45
2021/08/01 02:05:20;;;;;;;2.35;2.15;;;;;;;;;;5102465;28;20177;-45
2021/08/01 02:07:46;;;;;;;3.17;2.05;;;;;;;;;;5100416;28;20586;-44
2021/08/01 02:10:14;;;;;;;3.80;2.00;;;;;;;;;;5104513;28;20231;-46
2021/08/01 02:12:52;;;;;;;2.40;2.08;;;;;;;;;;5096530;28;20193;-45
2021/08/01 02:15:22;;;;;;;2.65;2.08;;;;;;;;;;5076753;28;20585;-44
2021/08/01 02:17:48;;;;;;;2.30;2.10;;;;;;;;;;5096448;28;20184;-44
2021/08/01 02:20:16;;;;;;;2.53;2.33;;;;;;;;;;5116518;28;20201;-44
2021/08/01 02:22:42;;;;;;;2.95;2.45;;;;;;;;;;5106295;28;20530;-44
2021/08/01 02:25:09;;;;;;;3.22;1.98;;;;;;;;;;5096061;28;20216;-44
2021/08/01 02:27:35;;;;;;;2.75;1.95;;;;;;;;;;5095661;28;20259;-44
2021/08/01 02:30:03;;;;;;;2.20;2.00;;;;;;;;;;5095041;28;20265;-44
2021/08/01 02:32:30;;;;;;;2.47;2.28;;;;;;;;;;5109075;28;20181;-44
2021/08/01 02:34:56;;;;;;;2.30;2.10;;;;;;;;;;5116360;28;20559;-44
2021/08/01 02:37:23;;;;;;;2.13;1.90;;;;;;;;;;5114165;28;20202;-45
2021/08/01 02:39:49;;;;;;;2.03;1.90;;;;;;;;;;5084720;28;20173;-45
2021/08/01 02:42:15;;;;;;;2.75;1.90;;;;;;;;;;5095871;28;20214;-45
2021/08/01 02:44:42;;;;;;;3.60;2.40;;;;;;;;;;5094485;28;20586;-45
2021/08/01 02:47:09;;;;;;;2.10;1.90;;;;;;;;;;5110784;28;20292;-45
2021/08/01 02:49:39;;;;;;;2.28;1.98;;;;;;;;;;5086463;28;20539;-45
2021/08/01 02:52:06;;;;;;;2.75;2.17;;;;;;;;;;5082085;28;20536;-45
2021/08/01 02:54:33;;;;;;;2.38;2.08;;;;;;;;;;5084165;28;20177;-45
2021/08/01 02:57:01;;;;;;;2.53;1.92;;;;;;;;;;5080449;28;20678;-44
2021/08/01 02:59:27;;;;;;;1.95;1.80;;;;;;;;;;5089718;28;20270;-45
2021/08/01 03:01:55;;;;;;;2.08;1.88;;;;;;;;;;5095581;28;20240;-45
2021/08/01 03:04:27;;;;;;;2.97;1.75;;;;;;;;;;5095517;28;20264;-45
2021/08/01 03:06:57;;;;;;;1.83;1.73;;;;;;;;;;5100551;28;20176;-45
2021/08/01 03:09:23;;;;;;;3.20;1.95;;;;;;;;;;5103085;28;20270;-44
2021/08/01 03:11:49;;;;;;;3.10;2.20;;;;;;;;;;5095070;28;20169;-44
2021/08/01 03:14:16;;;;;;;2.08;1.90;;;;;;;;;;5081508;28;20186;-44
2021/08/01 03:16:42;;;;;;;2.90;1.50;;;;;;;;;;5090581;28;20197;-44
2021/08/01 03:19:08;;;;;;;3.22;2.10;;;;;;;;;;5107950;28;20211;-44
2021/08/01 03:21:34;;;;;;;2.05;1.80;;;;;;;;;;5095357;28;20186;-45
2021/08/01 03:24:00;;;;;;;3.05;1.90;;;;;;;;;;5106158;28;20221;-44
2021/08/01 03:26:26;;;;;;;2.45;1.80;;;;;;;;;;5095225;28;20441;-44
2021/08/01 03:28:52;;;;;;;2.75;1.90;;;;;;;;;;5069071;28;20288;-44
2021/08/01 03:31:18;;;;;;;3.15;1.90;;;;;;;;;;5074904;28;20223;-44
2021/08/01 03:33:44;;;;;;;2.30;2.10;;;;;;;;;;5074781;28;20163;-44
2021/08/01 03:36:10;;;;;;;2.15;1.85;;;;;;;;;;5074500;28;20162;-44
2021/08/01 03:38:36;;;;;;;1.85;1.75;;;;;;;;;;5101207;28;20263;-44
2021/08/01 03:41:02;;;;;;;3.08;2.20;;;;;;;;;;5096010;28;20189;-44
2021/08/01 03:43:28;;;;;;;2.30;1.80;;;;;;;;;;5090407;28;20489;-44
2021/08/01 03:45:54;;;;;;;2.30;2.10;;;;;;;;;;5075878;28;20190;-44
2021/08/01 03:48:20;;;;;;;1.70;1.60;;;;;;;;;;5075517;28;20198;-44
2021/08/01 03:50:46;;;;;;;1.95;1.60;;;;;;;;;;5094817;28;20185;-44
2021/08/01 03:53:12;;;;;;;3.17;1.75;;;;;;;;;;5085590;28;20183;-45
2021/08/01 03:55:38;;;;;;;2.40;1.95;;;;;;;;;;5092671;28;20213;-44
2021/08/01 03:58:04;;;;;;;1.95;1.83;;;;;;;;;;5093913;28;20451;-45
2021/08/01 04:00:30;;;;;;;1.85;1.75;;;;;;;;;;5098718;28;20196;-44
2021/08/01 04:02:56;;;;;;;1.98;1.83;;;;;;;;;;5115105;28;20700;-44
2021/08/01 04:05:22;;;;;;;1.80;1.70;;;;;;;;;;5080231;28;20281;-44
2021/08/01 04:07:48;;;;;;;2.00;1.80;;;;;;;;;;5108762;28;20227;-44
2021/08/01 04:10:14;;;;;;;2.15;1.73;;;;;;;;;;5094600;28;20560;-44
2021/08/01 04:12:40;;;;;;;1.92;1.65;;;;;;;;;;5094025;28;20516;-44
2021/08/01 04:15:06;;;;;;;2.00;1.80;;;;;;;;;;5076448;28;20167;-44
2021/08/01 04:17:33;;;;;;;2.15;2.00;;;;;;;;;;5091371;28;20174;-44
2021/08/01 04:19:59;;;;;;;1.67;1.58;;;;;;;;;;5074190;28;20181;-44
2021/08/01 04:22:25;;;;;;;1.83;1.58;;;;;;;;;;5092170;28;20264;-44
2021/08/01 04:24:52;;;;;;;1.98;1.80;;;;;;;;;;5108567;28;20268;-45
2021/08/01 04:27:17;;;;;;;2.67;1.95;;;;;;;;;;5098123;28;20166;-45
2021/08/01 04:29:43;;;;;;;2.05;1.70;;;;;;;;;;5089014;28;20216;-45
2021/08/01 04:32:09;;;;;;;1.75;1.63;;;;;;;;;;5098632;28;20197;-45
2021/08/01 04:34:35;;;;;;;4.20;1.88;;;;;;;;;;5096931;28;20193;-45
2021/08/01 04:37:01;;;;;;;2.00;1.90;;;;;;;;;;5107627;28;20493;-44
2021/08/01 04:39:27;;;;;;;2.00;1.90;;;;;;;;;;5101193;28;20178;-44
2021/08/01 04:41:54;;;;;;;2.15;1.95;;;;;;;;;;5098362;28;20170;-44
2021/08/01 04:44:20;;;;;;;1.70;1.60;;;;;;;;;;5084806;28;20306;-44
2021/08/01 04:46:45;;;;;;;1.75;1.65;;;;;;;;;;5078063;28;20549;-44
2021/08/01 04:49:12;;;;;;;1.92;1.70;;;;;;;;;;5090712;28;20206;-44
2021/08/01 04:51:37;;;;;;;2.17;1.70;;;;;;;;;;5105005;28;20212;-44
2021/08/01 04:54:03;;;;;;;3.13;1.80;;;;;;;;;;5101694;28;20568;-44
2021/08/01 04:56:30;;;;;;;2.17;1.63;;;;;;;;;;5098110;28;20415;-44
2021/08/01 04:58:56;;;;;;;1.90;1.80;;;;;;;;;;5085097;28;20637;-44
2021/08/01 05:01:22;;;;;;;8.05;2.22;;;;;;;;;;5077633;28;20380;-50
2021/08/01 05:03:47;;;;;;;3.22;2.00;;;;;;;;;;5077426;28;20446;-48
2021/08/01 05:06:13;;;;;;;2.42;2.08;;;;;;;;;;5093804;28;20279;-50
2021/08/01 05:08:40;;;;;;;4.13;2.08;;;;;;;;;;5104048;28;20833;-48
2021/08/01 05:11:06;;;;;;;6.18;2.20;;;;;;;;;;5078233;28;20186;-48
2021/08/01 05:13:32;;;;;;;4.28;1.77;;;;;;;;;;5091749;28;20181;-48
2021/08/01 05:15:58;;;;;;;4.53;1.95;;;;;;;;;;5086996;28;20190;-46
2021/08/01 05:18:24;;;;;;;3.70;2.03;;;;;;;;;;5096785;28;20170;-49
2021/08/01 05:20:50;;;;;;;3.08;2.17;;;;;;;;;;5112136;28;20265;-48
2021/08/01 05:23:16;;;;;;;3.70;2.25;;;;;;;;;;5108897;28;20185;-48
2021/08/01 05:25:42;;;;;;;5.13;2.10;;;;;;;;;;5096879;28;20593;-48
2021/08/01 05:28:08;;;;;;;5.10;2.38;;;;;;;;;;5094120;28;20197;-48
2021/08/01 05:30:34;;;;;;;2.03;1.83;;;;;;;;;;5082016;28;20186;-48
2021/08/01 05:33:04;;;;;;;3.70;2.13;;;;;;;;;;5112372;28;20208;-48
2021/08/01 05:35:30;;;;;;;3.65;2.20;;;;;;;;;;5111620;28;20247;-47
2021/08/01 05:37:56;;;;;;;8.32;1.98;;;;;;;;;;5102398;28;20189;-47
2021/08/01 05:40:22;;;;;;;4.95;1.80;;;;;;;;;;5093856;28;20182;-47
2021/08/01 05:42:48;;;;;;;4.57;1.73;;;;;;;;;;5097239;28;20182;-47
2021/08/01 05:45:14;;;;;;;4.22;1.88;;;;;;;;;;5076942;28;20598;-47
2021/08/01 05:47:40;;;;;;;5.00;1.98;;;;;;;;;;5076186;28;20170;-47
2021/08/01 05:50:08;;;;;;;3.28;1.73;;;;;;;;;;5103983;28;20426;-47
2021/08/01 05:52:34;;;;;;;3.00;2.08;;;;;;;;;;5102020;28;20216;-48
2021/08/01 05:55:00;;;;;;;3.88;1.73;;;;;;;;;;5094385;28;20558;-47
2021/08/01 05:57:26;;;;;;;2.00;1.75;;;;;;;;;;5096535;28;20169;-47
2021/08/01 05:59:52;;;;;;;4.95;1.88;;;;;;;;;;5096651;28;20183;-47
2021/08/01 06:02:18;;;;;;;2.38;1.88;;;;;;;;;;5095888;28;20229;-47
2021/08/01 06:04:44;;;;;;;4.45;2.20;;;;;;;;;;5097207;28;20188;-47
2021/08/01 06:07:10;;;;;;;2.28;1.88;;;;;;;;;;5115016;28;20173;-47
2021/08/01 06:09:39;;;;;;;2.45;2.00;;;;;;;;;;5092996;28;20499;-47
2021/08/01 06:12:05;;;;;;;2.22;1.85;;;;;;;;;;5096631;28;20433;-47
2021/08/01 06:14:31;;;;;;;2.85;2.00;;;;;;;;;;5096505;28;20206;-47
2021/08/01 06:16:57;;;;;;;3.70;1.92;;;;;;;;;;5095572;28;20274;-47
2021/08/01 06:19:23;;;;;;;2.20;1.88;;;;;;;;;;5108843;28;20314;-46
2021/08/01 06:21:49;;;;;;;5.00;1.90;;;;;;;;;;5100557;28;20556;-46
2021/08/01 06:24:15;;;;;;;2.88;1.63;;;;;;;;;;5096412;28;20190;-46
2021/08/01 06:26:42;;;;;;;8.68;2.22;;;;;;;;;;5096439;28;20259;-46
2021/08/01 06:29:08;;;;;;;4.70;2.03;;;;;;;;;;5095545;28;20331;-48
2021/08/01 06:31:35;;;;;;;6.20;2.00;;;;;;;;;;5096280;28;20442;-45
2021/08/01 06:34:01;;;;;;;2.60;2.05;;;;;;;;;;5107334;28;20196;-47
2021/08/01 06:36:27;;;;;;;2.63;2.08;;;;;;;;;;5096285;28;20174;-47
2021/08/01 06:38:53;;;;;;;2.10;1.65;;;;;;;;;;5093298;28;20196;-46
2021/08/01 06:41:18;;;;;;;2.00;1.77;;;;;;;;;;5096067;28;20211;-47
2021/08/01 06:43:44;;;;;;;1.80;1.70;;;;;;;;;;5094414;28;20182;-46
2021/08/01 06:46:10;;;;;;;3.35;1.73;;;;;;;;;;5095327;28;20271;-47
2021/08/01 06:48:37;;;;;;;2.83;1.80;;;;;;;;;;5111842;28;20215;-45
2021/08/01 06:51:03;;;;;;;2.45;2.00;;;;;;;;;;5113490;28;20264;-45
2021/08/01 06:53:30;;;;;;;5.88;2.05;;;;;;;;;;5108343;28;20750;-45
2021/08/01 06:55:56;;;;;;;2.33;1.80;;;;;;;;;;5095830;28;20189;-47
2021/08/01 06:58:22;;;;;;;1.80;1.70;;;;;;;;;;5093270;28;20447;-48
2021/08/01 07:00:48;;;;;;;4.70;2.03;;;;;;;;;;5102077;28;20606;-45
2021/08/01 07:03:14;;;;;;;2.50;1.80;;;;;;;;;;5105058;28;20442;-45
2021/08/01 07:05:40;;;;;;;3.28;1.83;;;;;;;;;;5096845;28;20181;-47
2021/08/01 07:08:06;;;;;;;2.90;2.05;;;;;;;;;;5101832;28;20204;-44
2021/08/01 07:10:32;;;;;;;11.35;2.35;;;;;;;;;;5101067;28;20173;-45
2021/08/01 07:13:05;;;;;;;3.53;2.00;;;;;;;;;;5087686;28;20182;-52
2021/08/01 07:15:31;;;;;;;3.13;2.20;;;;;;;;;;5093929;28;20169;-52
2021/08/01 07:17:58;;;;;;;4.50;1.73;;;;;;;;;;5094831;28;20214;-50
2021/08/01 07:20:24;;;;;;;9.70;2.80;;;;;;;;;;5098763;28;20259;-49
2021/08/01 07:22:50;;;;;;;7.25;2.40;;;;;;;;;;5110718;28;20413;-51
2021/08/01 07:25:17;;;;;;;4.97;2.40;;;;;;;;;;5094979;28;20455;-63
2021/08/01 07:27:43;;;;;;;8.45;2.70;;;;;;;;;;5094128;28;20182;-60
2021/08/01 07:30:09;;;;;;;5.55;2.47;;;;;;;;;;5075670;28;20171;-46
2021/08/01 07:32:35;;;;;;;6.13;1.95;;;;;;;;;;5078952;28;20170;-47
2021/08/01 07:35:01;;;;;;;8.10;2.03;;;;;;;;;;5080734;28;20200;-47
2021/08/01 07:37:27;;;;;;;3.78;1.90;;;;;;;;;;5113126;28;20188;-46
2021/08/01 07:39:53;;;;;;;4.22;2.10;;;;;;;;;;5094814;28;20261;-46
2021/08/01 07:42:19;;;;;;;7.45;2.17;;;;;;;;;;5094099;28;20204;-47
2021/08/01 07:44:46;;;;;;;3.67;2.25;;;;;;;;;;5093544;28;20548;-46
2021/08/01 07:47:16;;;;;;;6.75;2.42;;;;;;;;;;5087940;28;20581;-46
2021/08/01 07:49:42;;;;;;;5.78;2.40;;;;;;;;;;5076212;28;20275;-44
2021/08/01 07:52:08;;;;;;;4.60;2.60;;;;;;;;;;5113185;28;20256;-45
2021/08/01 07:54:34;;;;;;;4.07;2.10;;;;;;;;;;5094634;28;20205;-48
2021/08/01 07:57:00;;;;;;;2.65;2.00;;;;;;;;;;5094463;28;20547;-45
2021/08/01 07:59:26;;;;;;;3.22;2.10;;;;;;;;;;5093777;28;20185;-46
2021/08/01 08:01:52;;;;;;;2.78;1.70;;;;;;;;;;5100896;28;20295;-46
2021/08/01 08:04:18;;;;;;;4.00;2.03;;;;;;;;;;5114909;28;20229;-47
2021/08/01 08:06:44;;;;;;;4.35;1.77;;;;;;;;;;5115263;28;20803;-46
2021/08/01 08:09:10;;;;;;;4.88;2.00;;;;;;;;;;5096039;28;20197;-47
2021/08/01 08:11:37;;;;;;;3.78;2.28;;;;;;;;;;5093127;28;20533;-48
2021/08/01 08:14:03;;;;;;;4.43;2.10;;;;;;;;;;5086951;28;20499;-46
2021/08/01 08:16:29;;;;;;;6.03;2.03;;;;;;;;;;5094595;28;20225;-47
2021/08/01 08:18:55;;;;;;;3.17;2.15;;;;;;;;;;5093985;28;20197;-47
2021/08/01 08:21:22;;;;;;;5.05;2.33;;;;;;;;;;5094601;28;20172;-44
2021/08/01 08:23:49;;;;;;;2.20;2.00;;;;;;;;;;5106517;28;20471;-46
2021/08/01 08:26:14;;;;;;;3.35;2.30;;;;;;;;;;5094481;28;20204;-46
2021/08/01 08:28:41;;;;;;;3.13;2.10;;;;;;;;;;5086978;28;20293;-46
2021/08/01 08:31:07;;;;;;;4.05;2.05;;;;;;;;;;5074254;28;20171;-45
2021/08/01 08:33:33;;;;;;;2.67;1.80;;;;;;;;;;5092875;28;20178;-48
2021/08/01 08:35:59;;;;;;;2.92;1.92;;;;;;;;;;5093261;28;20177;-45
2021/08/01 08:38:25;;;;;;;10.93;5.35;;;;;;;;;;5102669;28;20181;-48
2021/08/01 08:40:52;;;;;;;24.38;8.50;;;;;;;;;;5097514;28;20189;-48
2021/08/01 08:43:18;;;;;;;35.80;11.48;;;;;;;;;;5090322;28;20178;-48
2021/08/01 08:45:44;;;;;;;20.20;7.38;;;;;;;;;;5078369;28;20187;-48
2021/08/01 08:48:11;;;;;;;13.82;5.82;;;;;;;;;;5074558;28;20280;-48
2021/08/01 08:50:38;;;;;;;12.35;5.75;;;;;;;;;;5114457;28;20253;-48
2021/08/01 08:53:06;;;;;;;8.40;3.95;;;;;;;;;;5104137;28;20231;-47
2021/08/01 08:55:35;;;;;;;10.00;4.10;;;;;;;;;;5084148;28;20213;-48
2021/08/01 08:58:05;;;;;;;7.75;3.60;;;;;;;;;;5077418;28;20565;-48
2021/08/01 09:00:31;;;;;;;8.38;3.90;;;;;;;;;;5093721;28;20165;-48
2021/08/01 09:02:57;;;;;;;6.20;3.53;;;;;;;;;;5094951;28;20176;-48
2021/08/01 09:05:24;;;;;;;6.60;3.10;;;;;;;;;;5114423;28;20240;-48
2021/08/01 09:07:50;;;;;;;7.20;3.10;;;;;;;;;;5108959;28;20182;-48
2021/08/01 09:10:16;;;;;;;7.05;2.90;;;;;;;;;;5095883;28;20184;-47
2021/08/01 09:12:42;;;;;;;5.10;3.25;;;;;;;;;;5086877;28;20446;-48
2021/08/01 09:15:15;;;;;;;9.23;2.75;;;;;;;;;;5096493;28;20174;-48
2021/08/01 09:17:42;;;;;;;4.05;2.70;;;;;;;;;;5097246;28;20177;-48
2021/08/01 09:20:18;;;;;;;4.90;3.20;;;;;;;;;;5116234;28;20174;-47
2021/08/01 09:23:05;;;;;;;6.55;3.22;;;;;;;;;;5111061;28;20266;-48
2021/08/01 09:25:32;;;;;;;3.03;2.53;;;;;;;;;;5090282;28;20281;-48
2021/08/01 09:28:09;;;;;;;8.65;3.00;;;;;;;;;;5078615;28;20210;-48
2021/08/01 09:30:48;;;;;;;4.18;2.83;;;;;;;;;;5097569;28;20630;-48
2021/08/01 09:33:16;;;;;;;5.28;2.72;;;;;;;;;;5098347;28;20198;-48
2021/08/01 09:35:42;;;;;;;5.15;2.83;;;;;;;;;;5117765;28;20211;-49
2021/08/01 09:38:08;;;;;;;3.83;2.80;;;;;;;;;;5109766;28;20174;-48
2021/08/01 09:40:35;;;;;;;4.43;2.75;;;;;;;;;;5087176;28;20600;-49
2021/08/01 09:43:11;;;;;;;4.75;2.83;;;;;;;;;;5078051;28;20174;-47
2021/08/01 09:45:38;;;;;;;5.07;2.50;;;;;;;;;;5097382;28;20177;-48
2021/08/01 09:48:20;;;;;;;8.52;2.85;;;;;;;;;;5096773;28;20190;-48
2021/08/01 09:50:59;;;;;;;7.75;4.00;;;;;;;;;;5097277;28;20170;-49
2021/08/01 09:53:25;;;;;;;14.10;5.60;;;;;;;;;;5107305;28;20291;-49
2021/08/01 09:56:10;;;;;;;12.40;5.25;;;;;;;;;;5084702;28;20457;-48
2021/08/01 09:58:36;;;;;;;13.25;5.57;;;;;;;;;;5082654;28;20181;-48
2021/08/01 10:01:02;;;;;;;8.77;4.32;;;;;;;;;;5077887;28;20284;-48
2021/08/01 10:03:35;;;;;;;8.75;3.88;;;;;;;;;;5085735;28;20187;-48
2021/08/01 10:06:10;;;;;;;9.23;4.07;;;;;;;;;;5088887;28;20198;-48
2021/08/01 10:08:38;;;;;;;7.03;3.40;;;;;;;;;;5086218;28;20205;-48
2021/08/01 10:11:11;;;;;;;7.82;3.85;;;;;;;;;;5089385;28;20163;-48
2021/08/01 10:13:38;;;;;;;10.48;3.92;;;;;;;;;;5078218;28;20237;-48
2021/08/01 10:16:04;;;;;;;6.45;3.45;;;;;;;;;;5091511;28;20256;-48
2021/08/01 10:18:30;;;;;;;9.68;4.13;;;;;;;;;;5091924;28;20185;-47
2021/08/01 10:20:56;;;;;;;11.05;3.92;;;;;;;;;;5089604;28;20623;-48
2021/08/01 10:23:23;;;;;;;7.38;3.65;;;;;;;;;;5094059;28;20178;-48
2021/08/01 10:25:49;;;;;;;11.10;4.35;;;;;;;;;;5096213;28;20190;-48
2021/08/01 10:28:18;;;;;;;8.65;4.35;;;;;;;;;;5095723;28;20293;-48
2021/08/01 10:30:45;;;;;;;21.75;8.63;;;;;;;;;;5099442;28;20173;-48
2021/08/01 10:33:12;;;;;;;25.63;9.05;;;;;;;;;;5112525;28;20489;-48
2021/08/01 10:35:42;;;;;;;27.15;9.05;;;;;;;;;;5096253;28;20235;-48
2021/08/01 10:38:11;;;;;;;21.15;8.75;;;;;;;;;;5095319;28;20453;-48
2021/08/01 10:40:37;;;;;;;27.00;9.90;;;;;;;;;;5081176;28;20186;-48
2021/08/01 10:43:11;;;;;;;26.02;10.68;;;;;;;;;;5093057;28;20186;-48
2021/08/01 10:45:37;;;;;;;30.52;9.57;;;;;;;;;;5095962;28;20248;-48
2021/08/01 10:48:06;;;;;;;24.08;9.07;;;;;;;;;;5095074;28;20250;-48
2021/08/01 10:50:33;;;;;;;29.10;9.93;;;;;;;;;;5103203;28;20169;-49
2021/08/01 10:53:18;;;;;;;28.10;10.45;;;;;;;;;;5106835;28;20200;-48
2021/08/01 10:55:44;;;;;;;28.23;12.02;;;;;;;;;;5096437;28;20177;-48
2021/08/01 10:58:11;;;;;;;17.75;7.90;;;;;;;;;;5093417;28;20178;-48
2021/08/01 11:00:56;;;;;;;23.23;8.05;;;;;;;;;;5086270;28;20210;-48
2021/08/01 11:03:25;;;;;;;16.85;6.90;;;;;;;;;;5075557;28;20178;-48
2021/08/01 11:05:52;;;;;;;32.67;9.07;;;;;;;;;;5089802;28;20239;-48
2021/08/01 11:08:18;;;;;;;19.35;7.53;;;;;;;;;;5094986;28;20201;-48
2021/08/01 11:10:44;;;;;;;25.25;7.72;;;;;;;;;;5099781;28;20173;-49
2021/08/01 11:13:28;;;;;;;21.33;8.68;;;;;;;;;;5093153;28;20181;-48
2021/08/01 11:15:54;;;;;;;15.40;6.50;;;;;;;;;;5075445;28;20170;-48
2021/08/01 11:18:30;;;;;;;13.07;5.35;;;;;;;;;;5083941;28;20173;-48
2021/08/01 11:20:56;;;;;;;10.10;3.78;;;;;;;;;;5101379;28;20837;-48
2021/08/01 11:23:42;;;;;;;7.03;3.30;;;;;;;;;;5101535;28;20543;-48
2021/08/01 11:26:10;;;;;;;6.97;3.78;;;;;;;;;;5094409;28;20195;-48
2021/08/01 11:28:36;;;;;;;7.47;3.42;;;;;;;;;;5091571;28;20194;-50
2021/08/01 11:31:02;;;;;;;4.20;2.80;;;;;;;;;;5085770;28;20205;-48
2021/08/01 11:33:29;;;;;;;6.57;2.97;;;;;;;;;;5093557;28;20212;-48
2021/08/01 11:36:07;;;;;;;5.00;2.92;;;;;;;;;;5094030;28;20201;-48
2021/08/01 11:38:33;;;;;;;6.68;2.67;;;;;;;;;;5105177;28;20409;-48
2021/08/01 11:40:59;;;;;;;5.05;2.83;;;;;;;;;;5097399;28;20192;-48
2021/08/01 11:43:25;;;;;;;3.67;2.25;;;;;;;;;;5090131;28;20181;-48
2021/08/01 11:46:01;;;;;;;6.47;2.78;;;;;;;;;;5109070;28;20173;-48
2021/08/01 11:48:27;;;;;;;3.75;2.28;;;;;;;;;;5114139;28;20196;-48
2021/08/01 11:50:55;;;;;;;2.80;1.90;;;;;;;;;;5098789;28;20508;-48
2021/08/01 11:53:22;;;;;;;3.10;2.03;;;;;;;;;;5081191;28;20497;-48
2021/08/01 11:55:50;;;;;;;4.00;2.13;;;;;;;;;;5094988;28;20415;-48
2021/08/01 11:58:16;;;;;;;3.60;1.75;;;;;;;;;;5093923;28;20197;-48
2021/08/01 12:00:42;;;;;;;2.47;1.80;;;;;;;;;;5094705;28;20208;-48
2021/08/01 12:03:09;;;;;;;3.15;2.03;;;;;;;;;;5077760;28;20431;-48
2021/08/01 12:05:41;;;;;;;3.00;2.25;;;;;;;;;;5077703;28;20194;-48
2021/08/01 12:08:07;;;;;;;2.55;1.80;;;;;;;;;;5098073;28;20205;-48
2021/08/01 12:10:33;;;;;;;2.35;1.67;;;;;;;;;;5094481;28;20189;-48
2021/08/01 12:13:08;;;;;;;3.38;1.90;;;;;;;;;;5094293;28;20170;-48
2021/08/01 12:15:37;;;;;;;3.35;2.10;;;;;;;;;;5094716;28;20165;-48
2021/08/01 12:18:03;;;;;;;2.55;1.67;;;;;;;;;;5094274;28;20478;-48
2021/08/01 12:20:33;;;;;;;2.85;1.73;;;;;;;;;;5088907;28;20193;-49
2021/08/01 12:22:59;;;;;;;3.60;2.17;;;;;;;;;;5094752;28;20181;-48
2021/08/01 12:25:26;;;;;;;2.15;1.95;;;;;;;;;;5090123;28;20200;-48
2021/08/01 12:27:52;;;;;;;2.88;2.08;;;;;;;;;;5074000;28;20431;-48
2021/08/01 12:30:19;;;;;;;4.78;2.20;;;;;;;;;;5094392;28;20177;-48
2021/08/01 12:32:46;;;;;;;3.40;1.92;;;;;;;;;;5094540;28;20567;-48
2021/08/01 12:35:23;;;;;;;2.55;1.80;;;;;;;;;;5097264;28;20185;-49
2021/08/01 12:38:02;;;;;;;5.03;1.90;;;;;;;;;;5109494;28;20178;-48
2021/08/01 12:40:38;;;;;;;2.35;1.60;;;;;;;;;;5094440;28;20265;-48
2021/08/01 12:43:06;;;;;;;3.55;1.90;;;;;;;;;;5094307;28;20421;-48
2021/08/01 12:45:34;;;;;;;7.50;1.83;;;;;;;;;;5096601;28;20418;-48
2021/08/01 12:48:01;;;;;;;8.10;2.10;;;;;;;;;;5095637;28;20202;-48
2021/08/01 12:50:28;;;;;;;6.20;2.45;;;;;;;;;;5093710;28;20189;-48
2021/08/01 12:52:55;;;;;;;7.65;2.67;;;;;;;;;;5087698;28;20185;-48
2021/08/01 12:55:22;;;;;;;3.88;2.45;;;;;;;;;;5094954;28;20213;-49
2021/08/01 12:57:58;;;;;;;2.85;2.00;;;;;;;;;;5090873;28;20289;-48
2021/08/01 13:00:30;;;;;;;4.88;2.55;;;;;;;;;;5096954;28;20536;-48
2021/08/01 13:03:00;;;;;;;2.35;1.90;;;;;;;;;;5097336;28;20166;-49
2021/08/01 13:05:27;;;;;;;3.08;1.95;;;;;;;;;;5082973;28;20180;-48
2021/08/01 13:07:54;;;;;;;2.03;1.80;;;;;;;;;;5100296;28;20162;-48
2021/08/01 13:10:20;;;;;;;2.85;1.92;;;;;;;;;;5090771;28;20181;-48
2021/08/01 13:13:04;;;;;;;3.00;1.85;;;;;;;;;;5097223;28;20544;-48
2021/08/01 13:15:32;;;;;;;2.67;1.80;;;;;;;;;;5094716;28;20288;-49
2021/08/01 13:17:58;;;;;;;4.47;1.70;;;;;;;;;;5097383;28;20178;-48
2021/08/01 13:20:32;;;;;;;2.53;1.80;;;;;;;;;;5099062;28;20192;-48
2021/08/01 13:22:58;;;;;;;2.70;1.90;;;;;;;;;;5102975;28;20175;-48
2021/08/01 13:25:34;;;;;;;4.65;1.80;;;;;;;;;;5087393;28;20190;-48
2021/08/01 13:28:00;;;;;;;5.30;2.05;;;;;;;;;;5077497;28;20185;-48
2021/08/01 13:30:26;;;;;;;2.65;1.80;;;;;;;;;;5097808;28;20162;-49
2021/08/01 13:32:52;;;;;;;3.00;1.85;;;;;;;;;;5097477;28;20577;-48
2021/08/01 13:35:23;;;;;;;3.30;1.75;;;;;;;;;;5097754;28;20176;-48
2021/08/01 13:38:09;;;;;;;2.15;1.90;;;;;;;;;;5100658;28;20202;-48
2021/08/01 13:40:39;;;;;;;5.10;2.25;;;;;;;;;;5102948;28;20185;-48
2021/08/01 13:43:18;;;;;;;4.05;2.08;;;;;;;;;;5096028;28;20193;-48
2021/08/01 13:45:44;;;;;;;4.90;2.17;;;;;;;;;;5076831;28;20171;-49
2021/08/01 13:48:10;;;;;;;3.17;1.67;;;;;;;;;;5076261;28;20209;-48
2021/08/01 13:50:36;;;;;;;2.63;2.00;;;;;;;;;;5076771;28;20240;-48
2021/08/01 13:53:03;;;;;;;5.78;2.33;;;;;;;;;;5084534;28;20183;-48
2021/08/01 13:55:29;;;;;;;4.97;1.85;;;;;;;;;;5095426;28;20179;-48
2021/08/01 13:58:05;;;;;;;4.63;2.35;;;;;;;;;;5096363;28;20425;-48
2021/08/01 14:00:31;;;;;;;3.90;1.98;;;;;;;;;;5096474;28;20177;-48
2021/08/01 14:02:59;;;;;;;4.00;2.45;;;;;;;;;;5096541;28;20258;-48
2021/08/01 14:05:25;;;;;;;2.80;2.00;;;;;;;;;;5112649;28;20162;-48
2021/08/01 14:07:51;;;;;;;3.38;2.30;;;;;;;;;;5111680;28;20200;-48
2021/08/01 14:10:17;;;;;;;3.40;1.90;;;;;;;;;;5096414;28;20265;-48
2021/08/01 14:12:43;;;;;;;3.35;2.08;;;;;;;;;;5096464;28;20223;-48
2021/08/01 14:15:09;;;;;;;3.33;1.80;;;;;;;;;;5077839;28;20519;-48
2021/08/01 14:17:36;;;;;;;1.90;1.70;;;;;;;;;;5076063;28;20163;-48
2021/08/01 14:20:03;;;;;;;2.08;1.67;;;;;;;;;;5093244;28;20186;-48
2021/08/01 14:22:29;;;;;;;3.58;1.60;;;;;;;;;;5109044;28;20272;-48
2021/08/01 14:24:55;;;;;;;2.20;1.80;;;;;;;;;;5096253;28;20272;-48
2021/08/01 14:27:24;;;;;;;2.10;1.65;;;;;;;;;;5095777;28;20468;-48
2021/08/01 14:29:50;;;;;;;1.60;1.50;;;;;;;;;;5096123;28;20201;-48
2021/08/01 14:32:17;;;;;;;1.75;1.63;;;;;;;;;;5097144;28;20209;-48
2021/08/01 14:34:44;;;;;;;1.73;1.63;;;;;;;;;;5095767;28;20473;-49
2021/08/01 14:37:10;;;;;;;1.75;1.60;;;;;;;;;;5096634;28;20184;-48
2021/08/01 14:39:40;;;;;;;2.08;1.67;;;;;;;;;;5107269;28;20182;-49
2021/08/01 14:42:07;;;;;;;2.85;1.58;;;;;;;;;;5095907;28;20577;-48
2021/08/01 14:44:33;;;;;;;1.45;1.35;;;;;;;;;;5082265;28;20217;-48